Time;durP1;ratioP1;P1;durP2;ratioP2;P2;SDS_P1;SDS_P2;PMS_P1;PMS_P2;Temp;Humidity;BMP_temperature;BMP_pressure;BME280_temperature;BME280_humidity;BME280_pressure;Samples;Min_cycle;Max_cycle;Signal;HPM_P1;HPM_P2
2021/12/03 00:00:56;;;;;;;6.72;1.95;;;0.50;99.90;;;;;;5026691;23;20124;-81
2021/12/03 00:03:24;;;;;;;4.25;1.60;;;1.30;99.90;;;;;;5014324;23;20057;-80
2021/12/03 00:05:51;;;;;;;4.82;1.90;;;1.20;99.90;;;;;;5035063;23;20054;-81
2021/12/03 00:08:18;;;;;;;4.60;1.80;;;0.30;99.90;;;;;;5066383;22;20376;-81
2021/12/03 00:10:48;;;;;;;4.55;1.75;;;0.30;99.90;;;;;;5032544;23;20488;-80
2021/12/03 00:13:14;;;;;;;4.40;1.77;;;0.30;99.90;;;;;;5027532;23;20140;-80
2021/12/03 00:15:40;;;;;;;4.63;2.03;;;0.20;99.90;;;;;;5022467;23;20088;-80
2021/12/03 00:18:06;;;;;;;4.68;1.85;;;0.20;99.90;;;;;;5041183;22;20460;-81
2021/12/03 00:20:36;;;;;;;3.55;1.92;;;0.20;99.90;;;;;;5019312;23;20045;-80
2021/12/03 00:25:33;;;;;;;5.80;1.80;;;0.30;99.90;;;;;;5110350;28;20077;-80
2021/12/03 00:27:59;;;;;;;7.47;2.33;;;0.20;99.90;;;;;;5086054;22;20047;-81
2021/12/03 00:30:26;;;;;;;4.40;1.90;;;0.30;99.90;;;;;;5012767;28;20524;-80
2021/12/03 00:32:55;;;;;;;4.88;2.00;;;0.40;99.90;;;;;;5029295;23;20071;-81
2021/12/03 00:35:21;;;;;;;5.93;2.00;;;0.40;99.90;;;;;;5031914;23;20057;-80
2021/12/03 00:37:48;;;;;;;8.00;2.00;;;0.40;99.90;;;;;;5032940;22;20055;-80
2021/12/03 00:40:21;;;;;;;6.85;2.95;;;0.50;99.90;;;;;;5035050;23;20057;-80
2021/12/03 00:42:47;;;;;;;4.82;1.85;;;0.40;99.90;;;;;;5024710;23;20045;-80
2021/12/03 00:45:14;;;;;;;4.20;1.83;;;0.40;99.90;;;;;;5031136;23;20056;-80
2021/12/03 00:47:40;;;;;;;6.70;1.83;;;0.50;99.90;;;;;;5042828;23;20054;-80
2021/12/03 00:50:09;;;;;;;6.20;1.58;;;0.40;99.90;;;;;;5014577;23;20397;-81
2021/12/03 00:52:35;;;;;;;5.38;1.90;;;0.40;99.90;;;;;;5031723;23;20504;-80
2021/12/03 00:55:06;;;;;;;6.55;1.92;;;0.40;99.90;;;;;;5034239;23;20065;31
2021/12/03 00:57:32;;;;;;;4.43;1.80;;;0.50;99.90;;;;;;5037408;23;20048;-80
2021/12/03 01:00:04;;;;;;;7.30;1.70;;;0.30;99.90;;;;;;5058071;22;20120;-81
2021/12/03 01:02:30;;;;;;;5.22;1.75;;;0.40;99.90;;;;;;5063160;23;20053;-80
2021/12/03 01:05:02;;;;;;;4.15;1.85;;;0.80;99.90;;;;;;5044131;23;20042;-80
2021/12/03 01:07:28;;;;;;;4.88;1.92;;;0.40;99.90;;;;;;4986598;28;20054;-80
2021/12/03 01:09:53;;;;;;;8.63;2.20;;;0.40;99.90;;;;;;4988303;28;20141;-80
2021/12/03 01:12:19;;;;;;;5.85;2.53;;;0.50;99.90;;;;;;5015398;23;20076;-80
2021/12/03 01:14:45;;;;;;;7.93;2.60;;;0.50;99.90;;;;;;5039400;23;20055;-80
2021/12/03 01:17:11;;;;;;;10.00;3.33;;;1.10;99.90;;;;;;5077584;22;20121;-81
2021/12/03 01:19:37;;;;;;;8.50;3.22;;;1.20;99.90;;;;;;5042942;28;20140;-80
2021/12/03 01:22:04;;;;;;;8.07;3.45;;;0.60;99.90;;;;;;5033507;22;20488;-81
2021/12/03 01:24:30;;;;;;;16.67;4.60;;;0.60;99.90;;;;;;5023666;22;20080;-80
2021/12/03 01:26:56;;;;;;;9.73;4.30;;;0.70;99.90;;;;;;5034291;23;20121;-80
2021/12/03 01:29:22;;;;;;;11.15;4.90;;;0.60;99.90;;;;;;5018771;23;20081;-80
2021/12/03 01:31:48;;;;;;;9.38;4.07;;;0.70;99.90;;;;;;5035002;23;20042;-80
2021/12/03 01:34:15;;;;;;;9.75;4.40;;;0.70;99.90;;;;;;5023153;28;20472;-80
2021/12/03 01:36:41;;;;;;;10.90;4.68;;;0.70;99.90;;;;;;5040742;23;20404;-80
2021/12/03 01:39:07;;;;;;;10.23;4.60;;;1.60;99.90;;;;;;5050646;22;20053;-80
2021/12/03 01:41:33;;;;;;;10.07;4.28;;;0.80;99.90;;;;;;5036064;23;20096;-81
2021/12/03 01:44:03;;;;;;;11.52;4.68;;;0.80;99.90;;;;;;5031517;23;20101;-80
2021/12/03 01:46:31;;;;;;;13.35;5.20;;;0.90;99.90;;;;;;5043150;23;20519;-80
2021/12/03 01:51:22;;;;;;;10.27;4.63;;;0.90;99.90;;;;;;5093450;22;20334;-80
2021/12/03 01:53:49;;;;;;;10.90;4.88;;;0.90;99.90;;;;;;5057220;22;20057;-80
2021/12/03 01:56:16;;;;;;;10.93;4.50;;;1.00;99.90;;;;;;5040002;23;20082;-80
2021/12/03 01:58:44;;;;;;;14.13;5.10;;;1.50;99.90;;;;;;5058283;23;20052;-80
2021/12/03 02:01:13;;;;;;;9.93;4.75;;;1.00;99.90;;;;;;5062855;22;20431;-81
2021/12/03 02:03:41;;;;;;;11.55;5.05;;;1.00;99.90;;;;;;5051032;23;20095;-80
2021/12/03 02:06:10;;;;;;;11.82;5.20;;;1.40;99.90;;;;;;5059961;22;20052;-80
2021/12/03 02:08:36;;;;;;;8.95;4.60;;;1.00;99.90;;;;;;5028894;23;20056;-80
2021/12/03 02:11:04;;;;;;;12.57;5.80;;;1.00;99.90;;;;;;5050216;23;20131;-81
2021/12/03 02:13:30;;;;;;;14.10;6.45;;;1.80;99.90;;;;;;5035377;23;20060;-80
2021/12/03 02:15:56;;;;;;;15.25;6.97;;;1.10;99.90;;;;;;5025217;23;20382;-81
2021/12/03 02:18:22;;;;;;;14.20;6.50;;;1.70;99.90;;;;;;5032727;23;20060;-82
2021/12/03 02:20:50;;;;;;;15.20;8.27;;;1.00;99.90;;;;;;5053872;23;20049;-79
2021/12/03 02:23:17;;;;;;;19.63;10.98;;;1.00;99.90;;;;;;5046144;23;20049;-79
2021/12/03 02:25:43;;;;;;;23.13;12.73;;;1.10;99.90;;;;;;5063347;22;20052;-79
2021/12/03 02:28:09;;;;;;;29.42;15.50;;;1.00;99.90;;;;;;5053302;22;20050;-79
2021/12/03 02:30:35;;;;;;;29.17;15.60;;;1.00;99.90;;;;;;5043216;28;20033;-79
2021/12/03 02:33:01;;;;;;;34.10;17.52;;;1.00;99.90;;;;;;5058210;22;20501;-80
2021/12/03 02:35:27;;;;;;;37.10;19.45;;;0.90;99.90;;;;;;5047210;23;20063;-81
2021/12/03 02:38:00;;;;;;;34.70;19.60;;;0.80;99.90;;;;;;5036026;23;20041;-79
2021/12/03 02:40:26;;;;;;;37.42;19.60;;;0.90;99.90;;;;;;5047994;22;20087;-79
2021/12/03 02:42:53;;;;;;;41.03;21.73;;;0.90;99.90;;;;;;5027372;23;20045;-79
2021/12/03 02:45:20;;;;;;;43.30;22.75;;;0.90;99.90;;;;;;5027551;22;20032;-79
2021/12/03 02:47:46;;;;;;;48.10;23.35;;;0.80;99.90;;;;;;5012786;23;20045;-79
2021/12/03 02:50:14;;;;;;;48.92;24.20;;;1.50;99.90;;;;;;5027055;23;20053;-79
2021/12/03 02:52:41;;;;;;;49.03;24.27;;;0.80;99.90;;;;;;5027465;23;20141;-79
2021/12/03 02:55:07;;;;;;;48.10;24.35;;;1.20;99.90;;;;;;5034250;23;20484;-80
2021/12/03 02:57:33;;;;;;;51.35;26.80;;;0.80;99.90;;;;;;5033084;23;20060;-79
2021/12/03 03:00:00;;;;;;;49.28;24.60;;;0.80;99.90;;;;;;5025011;23;20094;-80
2021/12/03 03:02:25;;;;;;;49.50;23.42;;;0.90;99.90;;;;;;5038876;23;20065;-79
2021/12/03 03:04:52;;;;;;;49.63;25.25;;;0.70;99.90;;;;;;5039345;23;20085;-79
2021/12/03 03:07:19;;;;;;;52.22;24.70;;;1.60;99.90;;;;;;5018945;28;20076;-79
2021/12/03 03:09:45;;;;;;;58.08;23.63;;;1.40;99.90;;;;;;5030830;23;20427;-79
2021/12/03 03:12:13;;;;;;;40.22;21.92;;;1.00;99.90;;;;;;5052410;22;20037;-79
2021/12/03 03:14:47;;;;;;;45.95;22.83;;;1.50;99.90;;;;;;5027069;23;20057;-79
2021/12/03 03:17:14;;;;;;;45.50;22.67;;;1.00;99.90;;;;;;5007228;23;20050;-79
2021/12/03 03:19:39;;;;;;;46.17;21.85;;;1.40;99.90;;;;;;5037481;23;20461;-79
2021/12/03 03:22:06;;;;;;;38.95;21.08;;;1.20;99.90;;;;;;5068968;22;20082;-80
2021/12/03 03:24:31;;;;;;;40.05;20.67;;;0.90;99.90;;;;;;5047103;23;20049;-79
2021/12/03 03:26:58;;;;;;;37.83;19.95;;;0.90;99.90;;;;;;5039115;23;20045;-80
2021/12/03 03:29:24;;;;;;;38.38;19.98;;;0.90;99.90;;;;;;5020212;28;20076;-79
2021/12/03 03:31:52;;;;;;;34.58;19.55;;;0.80;99.90;;;;;;5040648;22;20060;-80
2021/12/03 03:34:18;;;;;;;36.63;20.40;;;1.40;99.90;;;;;;5039792;23;20084;-80
2021/12/03 03:36:43;;;;;;;37.65;19.30;;;1.50;99.90;;;;;;5058303;23;20053;-79
2021/12/03 03:39:13;;;;;;;36.55;19.05;;;0.70;99.90;;;;;;5046260;23;20234;-79
2021/12/03 03:41:41;;;;;;;32.42;17.70;;;0.70;99.90;;;;;;5016445;23;20057;-79
2021/12/03 03:44:08;;;;;;;35.50;19.10;;;1.70;99.90;;;;;;5028216;22;20049;-79
2021/12/03 03:46:34;;;;;;;41.05;19.42;;;0.70;99.90;;;;;;5042474;23;20404;-79
2021/12/03 03:49:00;;;;;;;32.60;18.50;;;0.70;99.90;;;;;;5044923;22;20063;-79
2021/12/03 03:51:27;;;;;;;38.17;19.08;;;0.60;99.90;;;;;;5040086;22;20352;-79
2021/12/03 03:53:52;;;;;;;32.55;18.95;;;1.70;99.90;;;;;;5016049;23;20081;-79
2021/12/03 03:56:18;;;;;;;35.03;18.55;;;1.20;99.90;;;;;;4996212;28;20046;-79
2021/12/03 03:58:44;;;;;;;34.45;18.63;;;0.60;99.90;;;;;;4979520;28;20047;-79
2021/12/03 04:01:12;;;;;;;31.90;17.90;;;0.60;99.90;;;;;;5023365;23;20065;-79
2021/12/03 04:03:38;;;;;;;34.17;19.55;;;0.90;99.90;;;;;;5044812;23;20404;-79
2021/12/03 04:06:04;;;;;;;36.53;18.92;;;0.90;99.90;;;;;;5037097;23;20492;-79
2021/12/03 04:08:30;;;;;;;32.08;17.85;;;1.60;99.90;;;;;;5029737;23;20148;-79
2021/12/03 04:11:00;;;;;;;34.88;18.63;;;0.50;99.90;;;;;;5048530;23;20084;-79
2021/12/03 04:13:26;;;;;;;30.60;17.73;;;0.80;99.90;;;;;;5051660;23;20060;-79
2021/12/03 04:15:58;;;;;;;35.05;18.20;;;1.00;99.90;;;;;;5052185;23;20053;-80
2021/12/03 04:18:24;;;;;;;32.40;18.08;;;0.50;99.90;;;;;;5021648;22;20050;-79
2021/12/03 04:20:50;;;;;;;31.52;16.60;;;0.50;99.90;;;;;;4999247;28;20061;-79
2021/12/03 04:23:19;;;;;;;32.67;17.38;;;0.50;99.90;;;;;;5015446;23;20140;-79
2021/12/03 04:25:47;;;;;;;35.30;17.42;;;0.50;99.90;;;;;;5051071;23;20125;-79
2021/12/03 04:28:14;;;;;;;32.10;17.33;;;0.50;99.90;;;;;;5026384;22;20052;-79
2021/12/03 04:30:40;;;;;;;34.85;18.05;;;0.50;99.90;;;;;;5038643;23;20066;-79
2021/12/03 04:33:06;;;;;;;31.13;17.90;;;0.50;99.90;;;;;;5065937;23;20040;-79
2021/12/03 04:35:33;;;;;;;32.40;17.20;;;1.10;99.90;;;;;;5064989;23;20048;-79
2021/12/03 04:37:59;;;;;;;35.65;19.13;;;0.40;99.90;;;;;;5058564;23;20048;-80
2021/12/03 04:40:25;;;;;;;39.67;19.05;;;0.70;99.90;;;;;;5061333;23;20067;-80
2021/12/03 04:42:52;;;;;;;32.97;18.75;;;0.50;99.90;;;;;;5060965;23;20143;-80
2021/12/03 04:45:21;;;;;;;35.63;20.13;;;0.80;99.90;;;;;;5050854;23;20048;-79
2021/12/03 04:47:49;;;;;;;33.88;19.67;;;0.50;99.90;;;;;;5063508;23;20059;-79
2021/12/03 04:50:15;;;;;;;33.50;19.95;;;0.50;99.90;;;;;;5051626;22;20450;-79
2021/12/03 04:52:41;;;;;;;37.17;20.40;;;0.80;99.90;;;;;;5038756;23;20052;-79
2021/12/03 04:55:08;;;;;;;37.33;21.52;;;0.60;99.90;;;;;;5072556;22;20106;-80
2021/12/03 04:57:34;;;;;;;37.50;21.50;;;0.60;99.90;;;;;;5052272;23;20140;-79
2021/12/03 05:00:01;;;;;;;37.47;22.80;;;0.60;99.90;;;;;;5067686;22;20052;-80
2021/12/03 05:02:27;;;;;;;38.78;23.02;;;0.80;99.90;;;;;;5058240;23;20118;-80
2021/12/03 05:05:03;;;;;;;38.58;23.10;;;0.50;99.90;;;;;;5036938;23;20041;-80
2021/12/03 05:09:55;;;;;;;40.90;23.45;;;0.90;99.90;;;;;;5077881;22;20070;-79
2021/12/03 05:12:20;;;;;;;40.03;23.85;;;1.50;99.90;;;;;;5085520;22;20060;-79
2021/12/03 05:14:46;;;;;;;42.60;24.08;;;0.60;99.90;;;;;;5055776;23;20044;-79
2021/12/03 05:17:12;;;;;;;41.67;24.60;;;0.70;99.90;;;;;;5085712;22;20039;-79
2021/12/03 05:19:37;;;;;;;42.72;24.42;;;1.30;99.90;;;;;;5043248;23;20041;-79
2021/12/03 05:22:03;;;;;;;41.30;24.40;;;1.20;99.90;;;;;;5035742;22;20041;-80
2021/12/03 05:24:29;;;;;;;44.33;23.45;;;0.80;99.90;;;;;;5044111;23;20053;-79
2021/12/03 05:26:55;;;;;;;38.10;22.23;;;0.80;99.90;;;;;;5045914;23;20041;-79
2021/12/03 05:29:22;;;;;;;34.47;21.90;;;1.70;99.90;;;;;;5073704;22;20118;-80
2021/12/03 05:31:48;;;;;;;43.53;22.50;;;0.80;99.90;;;;;;5058189;23;20043;-80
2021/12/03 05:34:16;;;;;;;40.47;21.85;;;0.80;99.90;;;;;;5084885;22;20027;-79
2021/12/03 05:36:43;;;;;;;35.15;20.40;;;1.50;99.90;;;;;;5043239;23;20056;-80
2021/12/03 05:39:08;;;;;;;39.83;20.60;;;0.90;99.90;;;;;;5027133;22;20038;-79
2021/12/03 05:41:35;;;;;;;38.92;21.98;;;0.90;99.90;;;;;;5003230;28;20038;-80
2021/12/03 05:44:02;;;;;;;32.63;19.15;;;1.10;99.90;;;;;;5036390;23;20094;-79
2021/12/03 05:46:27;;;;;;;36.92;19.20;;;1.10;99.90;;;;;;5078186;28;20048;-79
2021/12/03 05:48:57;;;;;;;36.75;19.80;;;1.20;99.90;;;;;;5062923;23;20523;-80
2021/12/03 05:51:25;;;;;;;35.60;18.17;;;1.20;99.90;;;;;;5042125;22;20053;-79
2021/12/03 05:53:51;;;;;;;32.72;18.95;;;1.20;99.90;;;;;;5038409;22;20052;-79
2021/12/03 05:56:16;;;;;;;35.10;19.05;;;1.30;99.90;;;;;;5016590;23;20113;-79
2021/12/03 05:58:42;;;;;;;31.08;19.10;;;1.30;99.90;;;;;;5057199;23;20044;-79
2021/12/03 06:01:08;;;;;;;30.02;18.52;;;1.30;99.90;;;;;;5085257;22;20536;-80
2021/12/03 06:03:34;;;;;;;38.85;18.55;;;1.40;99.90;;;;;;5002977;28;20073;-79
2021/12/03 06:05:59;;;;;;;37.22;20.05;;;1.30;99.90;;;;;;5010746;23;1113681;-80
2021/12/03 06:08:25;;;;;;;39.15;20.08;;;1.60;99.90;;;;;;5023435;23;20057;-80
2021/12/03 06:10:51;;;;;;;40.05;19.10;;;1.50;99.90;;;;;;5009724;23;20070;-80
2021/12/03 06:13:16;;;;;;;36.20;19.33;;;1.60;99.90;;;;;;5014917;23;20028;-79
2021/12/03 06:15:42;;;;;;;33.22;18.02;;;1.60;99.90;;;;;;5059556;23;20041;-79
2021/12/03 06:18:08;;;;;;;29.23;16.42;;;2.10;99.90;;;;;;5039637;28;20469;-79
2021/12/03 06:20:34;;;;;;;28.42;15.98;;;1.60;99.90;;;;;;5044810;23;20072;-79
2021/12/03 06:22:59;;;;;;;24.83;13.85;;;1.70;99.90;;;;;;5059902;23;20502;-79
2021/12/03 06:25:25;;;;;;;25.20;13.73;;;1.70;99.90;;;;;;5060458;22;20480;-79
2021/12/03 06:27:54;;;;;;;24.45;12.70;;;1.70;99.90;;;;;;5057887;22;20412;-79
2021/12/03 06:30:21;;;;;;;24.65;11.65;;;1.80;99.90;;;;;;5059530;22;20052;-79
2021/12/03 06:32:48;;;;;;;23.05;10.68;;;1.80;99.90;;;;;;5058322;22;20486;-79
2021/12/03 06:35:14;;;;;;;22.65;10.52;;;2.30;99.90;;;;;;5079482;28;20040;-79
2021/12/03 06:37:41;;;;;;;22.02;10.60;;;1.80;99.90;;;;;;5058353;23;20053;-79
2021/12/03 06:40:26;;;;;;;21.00;10.00;;;2.90;99.90;;;;;;5039298;28;20083;-79
2021/12/03 06:45:18;;;;;;;19.63;9.32;;;1.80;99.90;;;;;;5103003;22;20067;-81
2021/12/03 06:47:44;;;;;;;13.10;7.40;;;1.70;99.90;;;;;;5042217;28;20231;-81
2021/12/03 06:50:13;;;;;;;18.55;8.52;;;1.70;99.90;;;;;;5049452;22;20045;-82
2021/12/03 06:52:41;;;;;;;13.52;7.10;;;1.80;99.90;;;;;;5056615;23;20053;-81
2021/12/03 06:55:10;;;;;;;18.42;7.50;;;1.70;99.90;;;;;;5044892;23;20045;-81
2021/12/03 06:57:37;;;;;;;14.13;6.60;;;1.70;99.90;;;;;;5037214;23;20501;-81
2021/12/03 07:00:06;;;;;;;17.48;7.38;;;1.70;99.90;;;;;;5040045;22;20383;-81
2021/12/03 07:02:31;;;;;;;11.00;5.97;;;1.80;99.90;;;;;;5027142;22;20510;-81
2021/12/03 07:05:00;;;;;;;13.60;6.35;;;1.80;99.90;;;;;;5033109;23;20050;-81
2021/12/03 07:07:26;;;;;;;16.92;6.70;;;1.80;99.90;;;;;;5040982;23;21210;-82
2021/12/03 07:09:52;;;;;;;14.02;7.30;;;1.90;99.90;;;;;;5017541;23;20517;-81
2021/12/03 07:12:17;;;;;;;16.52;7.70;;;2.00;99.90;;;;;;5028680;23;20044;-82
2021/12/03 07:14:43;;;;;;;15.60;8.55;;;2.00;99.90;;;;;;5036733;23;20049;-81
2021/12/03 07:17:09;;;;;;;17.98;9.18;;;2.00;99.90;;;;;;5037104;23;20492;-82
2021/12/03 07:19:34;;;;;;;22.20;8.68;;;2.60;99.90;;;;;;5053611;23;20071;-82
2021/12/03 07:22:01;;;;;;;16.02;8.77;;;2.00;99.90;;;;;;5038017;23;20385;-82
2021/12/03 07:24:27;;;;;;;21.50;8.90;;;2.40;99.90;;;;;;5034650;23;20418;-81
2021/12/03 07:26:56;;;;;;;17.02;8.15;;;2.00;99.90;;;;;;5067426;22;20103;-82
2021/12/03 07:29:22;;;;;;;17.13;8.10;;;2.00;99.90;;;;;;4982087;28;20053;-81
2021/12/03 07:31:48;;;;;;;15.75;8.60;;;2.00;99.90;;;;;;5004714;23;20057;-81
2021/12/03 07:34:15;;;;;;;16.75;8.52;;;1.90;99.90;;;;;;5038275;23;20192;-81
2021/12/03 07:36:41;;;;;;;13.90;7.68;;;1.90;99.90;;;;;;5065762;23;20470;-81
2021/12/03 07:39:06;;;;;;;14.70;7.07;;;2.50;99.90;;;;;;5058356;22;20044;-82
2021/12/03 07:41:35;;;;;;;11.57;7.45;;;1.80;99.90;;;;;;5037521;23;20079;-81
2021/12/03 07:44:01;;;;;;;14.38;7.05;;;1.90;99.90;;;;;;5033592;28;20041;-81
2021/12/03 07:46:27;;;;;;;11.35;6.47;;;2.20;99.90;;;;;;5062620;23;20065;-82
2021/12/03 07:48:58;;;;;;;12.23;6.10;;;2.70;99.90;;;;;;5057449;23;20046;-82
2021/12/03 07:51:26;;;;;;;15.48;6.25;;;2.00;99.90;;;;;;5032828;22;20057;-81
2021/12/03 07:53:51;;;;;;;13.57;5.80;;;2.90;99.90;;;;;;5044471;28;20041;-81
2021/12/03 07:56:17;;;;;;;13.52;6.05;;;2.70;99.90;;;;;;5033835;22;20040;-82
2021/12/03 07:58:43;;;;;;;15.82;5.97;;;2.00;99.90;;;;;;5035494;23;20053;-81
2021/12/03 08:01:09;;;;;;;13.65;6.03;;;2.00;99.90;;;;;;5052001;23;20104;-82
2021/12/03 08:03:34;;;;;;;16.00;6.45;;;2.00;99.90;;;;;;5067834;23;20075;-81
2021/12/03 08:06:06;;;;;;;13.93;6.13;;;2.00;99.90;;;;;;5063721;28;20391;-81
2021/12/03 08:08:32;;;;;;;16.40;7.10;;;2.10;99.90;;;;;;5080446;28;20040;-81
2021/12/03 08:10:58;;;;;;;15.55;7.85;;;2.20;99.90;;;;;;5088771;22;20494;-81
2021/12/03 08:13:23;;;;;;;16.60;7.15;;;3.00;99.90;;;;;;5032392;23;20056;-81
2021/12/03 08:15:49;;;;;;;17.88;7.40;;;2.30;99.90;;;;;;5016838;23;20124;-81
2021/12/03 08:18:15;;;;;;;15.00;7.30;;;2.50;99.90;;;;;;5040843;23;20044;-81
2021/12/03 08:20:41;;;;;;;18.45;7.82;;;2.40;99.90;;;;;;5059497;23;20038;-81
2021/12/03 08:23:07;;;;;;;19.70;8.05;;;2.40;99.90;;;;;;5024250;28;20041;-81
2021/12/03 08:25:33;;;;;;;16.33;7.40;;;2.50;99.90;;;;;;5023908;28;20396;-80
2021/12/03 08:28:04;;;;;;;15.60;7.13;;;2.50;99.90;;;;;;5060975;23;20058;-80
2021/12/03 08:30:30;;;;;;;20.00;8.05;;;2.60;99.90;;;;;;5021816;28;20065;-81
2021/12/03 08:33:03;;;;;;;18.88;7.45;;;2.80;99.90;;;;;;5044995;23;20114;-81
2021/12/03 08:35:28;;;;;;;19.15;7.95;;;2.70;99.90;;;;;;5005467;23;20432;-81
2021/12/03 08:37:55;;;;;;;14.85;7.68;;;2.70;99.90;;;;;;5041640;23;20045;-81
2021/12/03 08:40:22;;;;;;;20.00;7.95;;;3.30;99.90;;;;;;5043958;28;20068;-81
2021/12/03 08:42:48;;;;;;;19.77;8.93;;;2.70;99.90;;;;;;5038516;22;20048;-80
2021/12/03 08:45:17;;;;;;;25.45;8.32;;;2.70;99.90;;;;;;5039308;22;20056;-81
2021/12/03 08:47:49;;;;;;;21.10;9.15;;;2.70;99.90;;;;;;5048792;23;20049;-81
2021/12/03 08:50:19;;;;;;;18.42;8.88;;;2.70;99.90;;;;;;5043585;28;20041;-81
2021/12/03 08:55:11;;;;;;;19.30;9.20;;;3.10;99.90;;;;;;5066616;22;20512;-81
2021/12/03 08:57:36;;;;;;;24.02;9.60;;;3.00;99.90;;;;;;5060106;22;20038;-81
2021/12/03 09:00:12;;;;;;;17.10;9.13;;;2.60;99.90;;;;;;5041146;28;20088;-81
2021/12/03 09:02:39;;;;;;;21.50;8.60;;;2.70;99.90;;;;;;5006994;28;20054;-80
2021/12/03 09:05:05;;;;;;;23.60;9.48;;;2.70;99.90;;;;;;5008365;28;20396;-82
2021/12/03 09:07:31;;;;;;;21.60;9.60;;;2.70;99.90;;;;;;5067654;23;20058;-81
2021/12/03 09:09:58;;;;;;;20.90;9.40;;;3.90;99.90;;;;;;5059638;22;20499;-81
2021/12/03 09:12:23;;;;;;;20.63;9.13;;;3.10;99.90;;;;;;5026867;28;20048;-80
2021/12/03 09:14:52;;;;;;;23.30;9.68;;;2.80;99.90;;;;;;5056662;22;20052;-81
2021/12/03 09:24:57;;;;;;;20.67;9.07;;;3.40;99.90;;;;;;5057869;22;20053;-81
2021/12/03 09:27:22;;;;;;;20.17;9.18;;;3.40;99.90;;;;;;5039209;23;20055;-81
2021/12/03 09:29:50;;;;;;;17.00;8.25;;;3.00;99.90;;;;;;5067254;28;20036;-81
2021/12/03 09:32:22;;;;;;;26.15;8.65;;;3.80;99.90;;;;;;5066846;28;20093;-82
2021/12/03 09:34:47;;;;;;;18.23;7.38;;;3.10;99.90;;;;;;5065211;28;20046;-79
2021/12/03 09:37:13;;;;;;;17.08;7.43;;;4.10;99.90;;;;;;5065506;28;20028;-79
2021/12/03 09:39:44;;;;;;;21.75;7.88;;;3.80;99.90;;;;;;5043247;22;20056;-79
2021/12/03 09:42:10;;;;;;;20.52;7.70;;;4.00;99.90;;;;;;5056870;28;20492;-79
2021/12/03 09:44:40;;;;;;;17.75;6.93;;;3.30;99.90;;;;;;5032617;22;20089;-79
2021/12/03 09:47:06;;;;;;;16.40;6.78;;;3.40;99.90;;;;;;4979398;28;20050;-79
2021/12/03 09:49:34;;;;;;;13.45;5.75;;;3.40;99.90;;;;;;4978868;28;20046;-79
2021/12/03 09:54:43;;;;;;;16.33;6.47;;;3.40;99.90;;;;;;4979545;28;20429;-79
2021/12/03 09:57:14;;;;;;;16.13;6.75;;;4.30;99.90;;;;;;4979815;28;20042;-78
2021/12/03 10:18:47;;;;;;;16.65;5.45;;;3.50;99.90;;;;;;4995428;28;20045;-78
2021/12/03 10:21:39;;;;;;;15.43;5.40;;;3.50;99.90;;;;;;4996018;28;20049;-78
2021/12/03 10:27:32;;;;;;;16.67;5.22;;;3.50;99.90;;;;;;5036833;28;20056;-79
2021/12/03 10:33:13;;;;;;;17.55;5.80;;;3.60;99.90;;;;;;5054377;28;20133;-78
2021/12/03 10:41:16;;;;;;;13.00;4.72;;;4.30;99.90;;;;;;5055302;28;20049;-78
2021/12/03 10:57:00;;;;;;;12.30;3.72;;;3.50;99.90;;;;;;5074617;28;20052;-78
2021/12/03 10:59:51;;;;;;;14.35;4.35;;;3.50;99.90;;;;;;5075182;28;20040;-79
2021/12/03 11:03:07;;;;;;;12.00;4.00;;;3.50;99.90;;;;;;5039311;28;20479;-79
2021/12/03 11:17:00;;;;;;;10.50;3.55;;;3.70;99.90;;;;;;4992873;28;20137;-78
2021/12/03 11:56:22;;;;;;;9.98;3.60;;;3.70;99.90;;;;;;5072941;28;20136;-78
2021/12/03 12:40:55;;;;;;;11.88;5.53;;;3.70;99.90;;;;;;5081573;22;20052;-79
2021/12/03 13:24:18;;;;;;;14.43;4.22;;;3.90;99.90;;;;;;5055252;28;20053;-78
2021/12/03 14:00:01;;;;;;;10.05;3.78;;;4.20;99.90;;;;;;5037420;28;20088;-81
2021/12/03 14:48:33;;;;;;;10.40;3.67;;;5.30;99.90;;;;;;4978996;28;20053;-78
2021/12/03 14:56:10;;;;;;;9.07;4.30;;;4.40;99.90;;;;;;5013342;28;20046;-78
2021/12/03 14:58:50;;;;;;;10.27;4.78;;;4.90;99.90;;;;;;5012876;28;20486;-79
2021/12/03 15:01:29;;;;;;;18.38;5.35;;;4.50;99.90;;;;;;5013392;28;20108;-78
2021/12/03 15:14:40;;;;;;;11.23;5.63;;;4.50;99.90;;;;;;5012748;28;20057;-78
2021/12/03 15:22:41;;;;;;;9.30;5.78;;;4.50;99.90;;;;;;5055372;28;20454;-79
2021/12/03 15:25:21;;;;;;;8.57;6.22;;;4.50;99.90;;;;;;5019874;28;20049;-78
2021/12/03 15:52:27;;;;;;;16.67;9.13;;;4.70;99.90;;;;;;5053685;28;20080;-78
2021/12/03 15:57:33;;;;;;;14.68;9.60;;;4.20;99.90;;;;;;5039728;28;20503;-78
2021/12/03 16:08:17;;;;;;;18.42;11.13;;;4.10;99.90;;;;;;5039133;28;20135;-79
2021/12/03 16:23:26;;;;;;;19.80;12.07;;;4.00;99.90;;;;;;5057028;28;20380;-78
2021/12/03 16:26:17;;;;;;;20.05;11.32;;;4.00;99.90;;;;;;5056584;28;20045;-79
2021/12/03 16:48:31;;;;;;;30.23;15.43;;;4.00;99.90;;;;;;5056036;28;20053;-79
2021/12/03 16:53:26;;;;;;;26.42;14.73;;;4.00;99.90;;;;;;5038492;28;20440;-78
2021/12/03 16:55:59;;;;;;;33.30;15.93;;;4.00;99.90;;;;;;5056328;28;20419;-79
2021/12/03 16:58:25;;;;;;;28.30;14.75;;;4.00;99.90;;;;;;5056633;28;20041;-79
2021/12/03 17:00:59;;;;;;;29.27;16.27;;;4.00;99.90;;;;;;5056089;28;20041;-78
2021/12/03 17:03:39;;;;;;;27.60;15.02;;;4.00;99.90;;;;;;5056246;28;20052;-78
2021/12/03 17:09:03;;;;;;;33.67;17.15;;;4.00;99.90;;;;;;5037866;28;20061;-78
2021/12/03 17:11:41;;;;;;;31.10;15.77;;;4.00;99.90;;;;;;5056037;28;20463;-78
2021/12/03 17:14:34;;;;;;;31.80;16.00;;;4.10;99.90;;;;;;5021999;28;20475;-78
2021/12/03 17:17:26;;;;;;;33.20;17.50;;;4.10;99.90;;;;;;5037015;28;20051;-79
2021/12/03 17:25:15;;;;;;;31.23;16.40;;;4.10;99.90;;;;;;5055634;28;20037;-78
2021/12/03 17:49:00;;;;;;;33.00;16.02;;;4.30;99.90;;;;;;5055254;28;20198;-79
2021/12/03 17:54:21;;;;;;;34.83;16.75;;;4.30;99.90;;;;;;5055316;28;20053;-81
2021/12/03 17:56:48;;;;;;;33.13;15.93;;;4.30;99.90;;;;;;5056254;28;20052;-79
2021/12/03 17:59:25;;;;;;;33.80;16.17;;;4.30;99.90;;;;;;5037605;28;20048;-78
2021/12/03 18:02:05;;;;;;;34.72;16.38;;;4.30;99.90;;;;;;5028862;22;20056;-81
2021/12/03 18:04:44;;;;;;;31.38;15.07;;;4.60;99.90;;;;;;5013926;28;20485;-78
2021/12/03 18:07:23;;;;;;;34.78;17.73;;;4.80;99.90;;;;;;5015342;28;20085;-78
2021/12/03 18:48:25;;;;;;;52.13;22.02;;;4.40;99.90;;;;;;5014384;28;20085;-79
2021/12/03 18:55:37;;;;;;;51.97;21.23;;;4.70;99.90;;;;;;5013081;28;20535;-78
2021/12/03 18:58:06;;;;;;;59.38;23.23;;;4.40;99.90;;;;;;5013089;28;20189;-78
2021/12/03 19:00:36;;;;;;;56.03;21.55;;;4.40;99.90;;;;;;5018343;28;20097;-78
2021/12/03 19:06:06;;;;;;;59.35;23.00;;;4.40;99.90;;;;;;5010815;28;20103;-78
2021/12/03 19:11:17;;;;;;;63.33;24.83;;;5.00;99.90;;;;;;5033924;28;20052;-78
2021/12/03 19:13:42;;;;;;;63.90;22.98;;;4.40;99.90;;;;;;5033757;28;20046;-78
2021/12/03 19:16:11;;;;;;;68.07;25.95;;;4.40;99.90;;;;;;5015761;28;20084;-78
2021/12/03 19:18:40;;;;;;;62.33;23.75;;;4.40;99.90;;;;;;5034076;28;20480;-78
2021/12/03 19:21:10;;;;;;;71.68;25.42;;;4.40;99.90;;;;;;5016030;28;20057;-78
2021/12/03 19:23:35;;;;;;;69.00;25.92;;;4.40;99.90;;;;;;5016018;28;20053;-78
2021/12/03 19:26:01;;;;;;;72.10;26.30;;;4.50;99.90;;;;;;5033713;28;20060;-78
2021/12/03 19:28:28;;;;;;;72.60;27.00;;;4.40;99.90;;;;;;5015531;28;20103;-78
2021/12/03 19:30:56;;;;;;;70.45;26.77;;;4.40;99.90;;;;;;5038494;28;20541;-79
2021/12/03 19:33:22;;;;;;;69.45;26.65;;;4.40;99.90;;;;;;5040160;28;20088;-78
2021/12/03 19:35:48;;;;;;;77.85;26.88;;;4.30;99.90;;;;;;5039924;28;20128;-78
2021/12/03 19:38:17;;;;;;;73.63;27.50;;;4.40;99.90;;;;;;5051236;23;20176;-79
2021/12/03 19:40:52;;;;;;;69.97;27.40;;;4.50;99.90;;;;;;5100215;28;20048;-78
2021/12/03 19:43:19;;;;;;;82.47;28.27;;;4.40;99.90;;;;;;5100343;28;20051;-78
2021/12/03 19:45:54;;;;;;;72.65;26.63;;;4.30;99.90;;;;;;5081950;28;20051;-78
2021/12/03 19:48:20;;;;;;;74.32;26.55;;;4.40;99.90;;;;;;5065341;28;20070;-78
2021/12/03 19:50:47;;;;;;;75.15;27.38;;;4.30;99.90;;;;;;5081923;28;20048;-78
2021/12/03 19:53:16;;;;;;;68.38;26.08;;;4.40;99.90;;;;;;5100274;28;20052;-78
2021/12/03 19:55:44;;;;;;;69.78;24.63;;;4.40;99.90;;;;;;5081818;28;20052;-78
2021/12/03 19:58:12;;;;;;;65.72;26.30;;;4.30;99.90;;;;;;5081810;28;20544;-78
2021/12/03 20:00:39;;;;;;;72.50;27.65;;;4.40;99.90;;;;;;5082267;28;20406;-78
2021/12/03 20:03:05;;;;;;;67.68;27.33;;;4.20;99.90;;;;;;5100211;28;20048;-78
2021/12/03 20:05:31;;;;;;;72.55;28.42;;;4.30;99.90;;;;;;5100409;28;20035;-78
2021/12/03 20:07:59;;;;;;;74.10;28.67;;;4.30;99.90;;;;;;5099905;28;20089;-78
2021/12/03 20:10:27;;;;;;;69.03;28.50;;;4.40;99.90;;;;;;5082075;28;20048;-79
2021/12/03 20:12:53;;;;;;;72.43;28.70;;;4.30;99.90;;;;;;5100482;28;20043;-79
2021/12/03 20:15:26;;;;;;;79.05;29.42;;;4.30;99.90;;;;;;5100955;28;20477;-78
2021/12/03 20:18:10;;;;;;;67.30;27.23;;;4.30;99.90;;;;;;5081831;28;20496;-79